Terminal Aerodrome Forecast
Issued by NWS

Home | Current Version | Previous Version | Text Only | Print | Product List | Glossary On
Versions: 1 2 3 4 5 6 7 8 9 10 11 12 13 14 15 16
000
FTUS46 KPDT 291128
TAFBDN
TAF
KBDN 291128Z 2912/3012 20009KT P6SM OVC120
     FM291300 22012G20KT P6SM VCSH BKN050 OVC070
     FM291500 24025G35KT P6SM VCSH BKN070
     FM291900 28020G30KT P6SM SCT070
     FM300300 28010KT P6SM SCT070
     FM300700 21007KT P6SM SCT200=

USA.gov is the U.S. government's official web portal to all federal, state and local government web resources and services.